createdAt,value
2023-02-16T00:01:52.634Z,19.70
2023-02-16T00:04:23.173Z,20.65
2023-02-16T00:06:54.025Z,17.63
2023-02-16T00:09:22.865Z,18.45
2023-02-16T00:12:09.252Z,19.25
2023-02-16T00:14:39.195Z,20.27
2023-02-16T00:17:07.288Z,18.02
2023-02-16T00:19:37.801Z,18.98
2023-02-16T00:22:08.992Z,21.25
2023-02-16T00:24:37.785Z,18.42
2023-02-16T00:27:14.756Z,18.35
2023-02-16T00:29:45.669Z,18.33
2023-02-16T00:32:14.834Z,18.30
2023-02-16T00:34:45.971Z,23.33
2023-02-16T00:37:15.380Z,20.90
2023-02-16T00:39:45.389Z,20.73
2023-02-16T00:42:18.514Z,20.65
2023-02-16T00:44:49.434Z,20.80
2023-02-16T00:47:21.459Z,21.05
2023-02-16T00:49:51.840Z,18.80
2023-02-16T00:52:33.195Z,17.52
2023-02-16T00:55:03.586Z,21.27
2023-02-16T00:57:35.163Z,17.80
2023-02-16T01:00:08.459Z,18.08
2023-02-16T01:02:36.929Z,21.50
2023-02-16T01:05:05.752Z,18.40
2023-02-16T01:07:52.814Z,20.65
2023-02-16T01:10:38.820Z,19.60
2023-02-16T01:13:08.176Z,18.95
2023-02-16T01:15:37.578Z,18.85
2023-02-16T01:18:06.120Z,20.08
2023-02-16T01:20:36.235Z,22.50
2023-02-16T01:23:05.789Z,18.65
2023-02-16T01:25:33.856Z,19.65
2023-02-16T01:28:02.526Z,20.20
2023-02-16T01:30:31.043Z,19.63
2023-02-16T01:32:59.277Z,22.17
2023-02-16T01:35:32.530Z,18.65
2023-02-16T01:38:01.067Z,23.20
2023-02-16T01:40:41.347Z,20.40
2023-02-16T01:43:19.808Z,18.98
2023-02-16T01:45:55.561Z,18.42
2023-02-16T01:48:27.478Z,19.40
2023-02-16T01:51:00.811Z,20.80
2023-02-16T01:53:33.158Z,17.15
2023-02-16T01:56:06.281Z,18.95
2023-02-16T01:58:41.881Z,18.67
2023-02-16T02:01:40.385Z,18.73
2023-02-16T02:04:33.040Z,19.80
2023-02-16T02:07:01.306Z,20.73
2023-02-16T02:09:38.397Z,20.77
2023-02-16T02:12:15.700Z,21.08
2023-02-16T02:14:44.265Z,20.00
2023-02-16T02:17:17.729Z,20.08
2023-02-16T02:19:55.674Z,19.30
2023-02-16T02:23:16.395Z,20.67
2023-02-16T02:26:33.307Z,19.60
2023-02-16T02:29:18.490Z,18.45
2023-02-16T02:31:57.148Z,22.10
2023-02-16T02:34:40.862Z,20.92
2023-02-16T02:37:17.029Z,19.17
2023-02-16T02:39:54.240Z,19.98
2023-02-16T02:42:31.224Z,18.20
2023-02-16T02:45:06.252Z,18.02
2023-02-16T02:47:41.809Z,21.00
2023-02-16T02:51:02.825Z,21.52
2023-02-16T02:53:33.175Z,18.23
2023-02-16T02:56:21.294Z,19.13
2023-02-16T02:59:11.867Z,17.50
2023-02-16T03:01:44.447Z,21.50
2023-02-16T03:04:18.482Z,21.08
2023-02-16T03:06:51.223Z,18.40
2023-02-16T03:09:21.251Z,19.85
2023-02-16T03:12:08.633Z,19.60
2023-02-16T03:14:43.396Z,20.95
2023-02-16T03:17:31.697Z,21.40
2023-02-16T03:20:20.478Z,19.73
2023-02-16T03:23:06.315Z,18.17
2023-02-16T03:25:56.312Z,17.70
2023-02-16T03:28:44.835Z,20.80
2023-02-16T03:31:20.105Z,22.83
2023-02-16T03:33:54.668Z,17.00
2023-02-16T03:36:23.948Z,19.67
2023-02-16T03:38:53.020Z,18.20
2023-02-16T03:41:22.019Z,20.67
2023-02-16T03:43:49.946Z,17.67
2023-02-16T03:46:19.792Z,23.30
2023-02-16T03:48:47.841Z,18.83
2023-02-16T03:51:15.829Z,19.00
2023-02-16T03:53:43.958Z,19.33
2023-02-16T03:56:11.915Z,18.13
2023-02-16T03:59:04.988Z,20.88
2023-02-16T04:01:34.661Z,17.90
2023-02-16T04:04:02.849Z,20.52
2023-02-16T04:06:31.140Z,22.50
2023-02-16T04:08:59.511Z,22.20
2023-02-16T04:11:45.002Z,20.50
2023-02-16T04:14:13.310Z,24.10
2023-02-16T04:16:42.748Z,23.98
2023-02-16T04:19:11.272Z,21.60
2023-02-16T04:21:39.663Z,21.08
2023-02-16T04:24:08.019Z,23.48
2023-02-16T04:26:36.248Z,22.02
2023-02-16T04:29:04.235Z,25.45
2023-02-16T04:31:32.559Z,22.63
2023-02-16T04:34:01.898Z,23.30
2023-02-16T04:36:31.705Z,22.50
2023-02-16T04:38:59.760Z,22.55
2023-02-16T04:41:27.753Z,23.83
2023-02-16T04:43:56.506Z,22.83
2023-02-16T04:46:25.024Z,22.90
2023-02-16T04:48:53.338Z,20.73
2023-02-16T04:51:23.032Z,26.02
2023-02-16T04:53:51.097Z,24.70
2023-02-16T04:56:19.046Z,21.42
2023-02-16T04:58:47.322Z,23.80
2023-02-16T05:01:20.402Z,20.00
2023-02-16T05:03:48.984Z,21.52
2023-02-16T05:06:17.297Z,21.00
2023-02-16T05:08:47.538Z,22.73
2023-02-16T05:11:33.104Z,23.60
2023-02-16T05:14:18.926Z,24.40
2023-02-16T05:16:47.671Z,24.42
2023-02-16T05:19:16.025Z,22.83
2023-02-16T05:21:44.586Z,26.85
2023-02-16T05:24:14.194Z,23.23
2023-02-16T05:26:42.120Z,24.77
2023-02-16T05:29:10.132Z,24.83
2023-02-16T05:31:38.755Z,22.60
2023-02-16T05:34:06.974Z,26.08
2023-02-16T05:36:35.152Z,24.00
2023-02-16T05:39:03.334Z,22.77
2023-02-16T05:41:32.961Z,23.67
2023-02-16T05:44:02.457Z,20.65
2023-02-16T05:46:33.699Z,25.10
2023-02-16T05:49:03.356Z,24.77
2023-02-16T05:51:31.485Z,25.25
2023-02-16T05:53:59.951Z,23.27
2023-02-16T05:56:30.062Z,24.40
2023-02-16T05:59:00.731Z,23.10
2023-02-16T06:01:29.768Z,25.58
2023-02-16T06:03:58.365Z,22.10
2023-02-16T06:06:26.433Z,23.95
2023-02-16T06:08:54.771Z,21.23
2023-02-16T06:11:37.925Z,22.65
2023-02-16T06:14:10.096Z,22.90
2023-02-16T06:16:39.941Z,21.95
2023-02-16T06:19:08.989Z,24.42
2023-02-16T06:21:37.969Z,24.40
2023-02-16T06:24:06.399Z,22.88
2023-02-16T06:26:35.030Z,23.92
2023-02-16T06:29:03.143Z,23.77
2023-02-16T06:31:35.836Z,22.60
2023-02-16T06:34:05.283Z,25.83
2023-02-16T06:36:34.110Z,23.45
2023-02-16T06:39:02.389Z,23.33
2023-02-16T06:41:35.764Z,22.65
2023-02-16T06:44:06.618Z,22.70
2023-02-16T06:46:36.623Z,23.25
2023-02-16T06:49:19.190Z,23.25
2023-02-16T06:52:06.014Z,25.85
2023-02-16T06:54:34.549Z,24.92
2023-02-16T06:57:02.600Z,25.63
2023-02-16T06:59:30.865Z,25.20
2023-02-16T07:02:00.484Z,22.63
2023-02-16T07:04:28.622Z,27.23
2023-02-16T07:07:15.835Z,25.63
2023-02-16T07:09:44.446Z,24.25
2023-02-16T07:12:13.554Z,27.25
2023-02-16T07:14:43.190Z,24.85
2023-02-16T07:17:14.606Z,23.02
2023-02-16T07:19:43.025Z,24.98
2023-02-16T07:22:11.334Z,25.02
2023-02-16T07:24:39.378Z,25.98
2023-02-16T07:27:08.710Z,26.60
2023-02-16T07:29:37.211Z,26.58
2023-02-16T07:32:05.547Z,25.40
2023-02-16T07:34:35.575Z,25.48
2023-02-16T07:37:03.752Z,30.00
2023-02-16T07:39:32.090Z,28.90
2023-02-16T07:42:00.186Z,26.58
2023-02-16T07:44:28.283Z,27.27
2023-02-16T07:46:56.482Z,31.88
2023-02-16T07:49:24.650Z,28.08
2023-02-16T07:51:54.229Z,26.90
2023-02-16T07:54:22.190Z,25.98
2023-02-16T07:56:50.393Z,22.60
2023-02-16T07:59:18.552Z,26.15
2023-02-16T08:01:47.015Z,21.95
2023-02-16T08:04:25.402Z,23.77
2023-02-16T08:06:55.124Z,21.10
2023-02-16T08:09:23.492Z,22.90
2023-02-16T08:11:51.629Z,22.25
2023-02-16T08:14:19.824Z,19.50
2023-02-16T08:16:50.369Z,20.40
2023-02-16T08:19:20.704Z,21.67
2023-02-16T08:21:49.523Z,20.77
2023-02-16T08:24:19.036Z,23.30
2023-02-16T08:26:49.959Z,20.25
2023-02-16T08:29:20.008Z,23.73
2023-02-16T08:31:49.176Z,19.52
2023-02-16T08:34:20.300Z,20.80
2023-02-16T08:36:53.121Z,22.38
2023-02-16T08:39:24.324Z,20.52
2023-02-16T08:41:53.275Z,20.02
2023-02-16T08:44:23.798Z,20.85
2023-02-16T08:46:54.180Z,20.25
2023-02-16T08:49:24.109Z,21.30
2023-02-16T08:51:54.811Z,23.45
2023-02-16T08:54:27.200Z,20.35
2023-02-16T08:56:55.882Z,20.88
2023-02-16T08:59:28.302Z,20.48
2023-02-16T09:01:57.195Z,21.58
2023-02-16T09:04:25.698Z,22.75
2023-02-16T09:06:54.127Z,20.13
2023-02-16T09:09:22.146Z,21.73
2023-02-16T09:11:51.556Z,20.23
2023-02-16T09:14:21.614Z,19.00
2023-02-16T09:16:50.772Z,19.10
2023-02-16T09:19:21.465Z,19.42
2023-02-16T09:21:52.151Z,19.92
2023-02-16T09:24:20.273Z,19.92
2023-02-16T09:26:48.231Z,21.40
2023-02-16T09:29:18.436Z,18.90
2023-02-16T09:31:46.866Z,18.92
2023-02-16T09:34:17.822Z,20.70
2023-02-16T09:36:47.385Z,17.48
2023-02-16T09:39:16.559Z,19.70
2023-02-16T09:42:01.598Z,18.05
2023-02-16T09:44:40.233Z,17.73
2023-02-16T09:47:19.432Z,18.15
2023-02-16T09:49:48.985Z,18.20
2023-02-16T09:52:26.247Z,18.77
2023-02-16T09:54:57.672Z,17.90
2023-02-16T09:57:39.219Z,18.65
2023-02-16T10:00:18.684Z,18.00
2023-02-16T10:02:54.218Z,18.92
2023-02-16T10:05:28.105Z,16.92
2023-02-16T10:08:02.022Z,18.10
2023-02-16T10:10:42.333Z,18.30
2023-02-16T10:13:20.373Z,18.13
2023-02-16T10:15:53.597Z,18.00
2023-02-16T10:18:29.468Z,18.00
2023-02-16T10:21:25.481Z,17.85
2023-02-16T10:23:59.979Z,17.80
2023-02-16T10:26:33.620Z,18.15
2023-02-16T10:29:07.530Z,18.77
2023-02-16T10:31:42.863Z,18.33
2023-02-16T10:34:23.028Z,19.58
2023-02-16T10:37:14.771Z,19.25
2023-02-16T10:39:49.330Z,18.77
2023-02-16T10:42:26.251Z,20.83
2023-02-16T10:45:00.928Z,16.88
2023-02-16T10:47:36.844Z,18.45
2023-02-16T10:50:07.172Z,18.27
2023-02-16T10:52:40.703Z,18.98
2023-02-16T10:55:09.209Z,19.08
2023-02-16T10:57:37.303Z,18.70
2023-02-16T11:00:11.610Z,18.10
2023-02-16T11:02:43.626Z,18.25
2023-02-16T11:05:38.239Z,18.70
2023-02-16T11:08:11.303Z,18.77
2023-02-16T11:10:48.352Z,15.70
2023-02-16T11:13:26.902Z,18.80
2023-02-16T11:15:57.415Z,20.17
2023-02-16T11:18:34.682Z,19.15
2023-02-16T11:21:04.213Z,19.60
2023-02-16T11:23:33.899Z,19.30
2023-02-16T11:26:05.806Z,18.83
2023-02-16T11:28:37.129Z,21.17
2023-02-16T11:31:19.356Z,22.52
2023-02-16T11:34:01.114Z,22.35
2023-02-16T11:36:34.326Z,22.70
2023-02-16T11:39:05.874Z,21.70
2023-02-16T11:41:34.933Z,20.95
2023-02-16T11:44:04.758Z,19.70
2023-02-16T11:46:40.810Z,20.60
2023-02-16T11:49:34.083Z,19.60
2023-02-16T11:52:18.451Z,19.20
2023-02-16T11:54:50.467Z,20.48
2023-02-16T11:57:25.350Z,20.25
2023-02-16T11:59:53.804Z,19.65
2023-02-16T12:02:48.321Z,21.67
2023-02-16T12:05:27.120Z,22.92
2023-02-16T12:08:19.511Z,19.92
2023-02-16T12:11:03.477Z,20.10
2023-02-16T12:13:41.354Z,19.52
2023-02-16T12:16:23.809Z,20.67
2023-02-16T12:19:04.952Z,21.13
2023-02-16T12:21:39.092Z,21.85
2023-02-16T12:24:23.744Z,19.67
2023-02-16T12:26:54.990Z,20.00
2023-02-16T12:29:39.365Z,22.00
2023-02-16T12:32:22.652Z,23.00
2023-02-16T12:35:04.210Z,20.42
2023-02-16T12:37:41.378Z,21.48
2023-02-16T12:40:21.067Z,20.27
2023-02-16T12:43:02.901Z,21.50
2023-02-16T12:45:36.631Z,21.35
2023-02-16T12:48:19.761Z,20.95
2023-02-16T12:50:51.210Z,20.30
2023-02-16T12:53:27.679Z,23.77
2023-02-16T12:56:00.350Z,19.60
2023-02-16T12:58:33.119Z,20.88
2023-02-16T13:01:07.531Z,21.33
2023-02-16T13:03:40.361Z,20.83
2023-02-16T13:06:15.724Z,22.40
2023-02-16T13:08:51.932Z,20.92
2023-02-16T13:11:25.738Z,21.77
2023-02-16T13:13:59.724Z,21.38
2023-02-16T13:16:38.491Z,20.52
2023-02-16T13:19:06.788Z,22.02
2023-02-16T13:21:54.257Z,21.50
2023-02-16T13:24:36.395Z,22.88
2023-02-16T13:27:21.929Z,21.77
2023-02-16T13:30:06.020Z,21.23
2023-02-16T13:32:50.381Z,22.42
2023-02-16T13:35:38.034Z,20.75
2023-02-16T13:38:28.026Z,21.83
2023-02-16T13:41:23.102Z,21.95
2023-02-16T13:43:56.475Z,21.00
2023-02-16T13:46:30.811Z,20.88
2023-02-16T13:48:59.861Z,19.48
2023-02-16T13:51:31.313Z,21.42
2023-02-16T13:54:01.574Z,22.17
2023-02-16T13:56:37.100Z,20.75
2023-02-16T13:59:57.089Z,21.10
2023-02-16T14:02:54.953Z,21.52
2023-02-16T14:05:28.013Z,20.70
2023-02-16T14:08:27.644Z,22.13
2023-02-16T14:11:04.973Z,23.67
2023-02-16T14:13:45.472Z,22.20
2023-02-16T14:16:29.083Z,21.45
2023-02-16T14:18:59.532Z,25.55
2023-02-16T14:21:38.233Z,22.23
2023-02-16T14:24:11.133Z,23.33
2023-02-16T14:27:09.418Z,22.23
2023-02-16T14:29:43.380Z,22.30
2023-02-16T14:32:25.433Z,20.38
2023-02-16T14:34:58.215Z,22.42
2023-02-16T14:37:34.989Z,22.30
2023-02-16T14:40:22.965Z,22.55
2023-02-16T14:42:55.426Z,20.90
2023-02-16T14:46:05.778Z,22.20
2023-02-16T14:48:58.354Z,22.38
2023-02-16T14:51:44.659Z,20.80
2023-02-16T14:55:09.179Z,22.85
2023-02-16T14:57:43.714Z,21.27
2023-02-16T15:00:19.830Z,20.45
2023-02-16T15:02:59.558Z,20.20
2023-02-16T15:05:30.839Z,21.40
2023-02-16T15:08:09.230Z,22.63
2023-02-16T15:10:40.240Z,20.52
2023-02-16T15:13:09.923Z,22.13
2023-02-16T15:15:45.177Z,21.98
2023-02-16T15:18:18.184Z,21.50
2023-02-16T15:20:49.365Z,20.98
2023-02-16T15:23:20.734Z,21.77
2023-02-16T15:25:58.785Z,20.70
2023-02-16T15:28:29.473Z,20.75
2023-02-16T15:31:00.055Z,21.60
2023-02-16T15:33:37.238Z,20.38
2023-02-16T15:36:09.038Z,21.55
2023-02-16T15:38:39.965Z,19.98
2023-02-16T15:41:10.655Z,21.40
2023-02-16T15:43:44.851Z,21.63
2023-02-16T15:46:24.358Z,20.58
2023-02-16T15:48:54.288Z,21.67
2023-02-16T15:51:27.345Z,19.55
2023-02-16T15:53:58.144Z,20.70
2023-02-16T15:56:39.588Z,21.55
2023-02-16T15:59:23.743Z,22.50
2023-02-16T16:01:59.220Z,23.55
2023-02-16T16:04:30.126Z,21.52
2023-02-16T16:07:00.718Z,22.45
2023-02-16T16:09:33.003Z,20.80
2023-02-16T16:12:04.181Z,22.50
2023-02-16T16:14:36.798Z,23.27
2023-02-16T16:17:05.445Z,22.27
2023-02-16T16:19:36.615Z,20.35
2023-02-16T16:22:15.463Z,21.63
2023-02-16T16:24:47.871Z,21.75
2023-02-16T16:27:15.898Z,22.45
2023-02-16T16:29:45.703Z,24.70
2023-02-16T16:32:21.244Z,21.40
2023-02-16T16:34:51.019Z,20.20
2023-02-16T16:37:28.403Z,25.83
2023-02-16T16:40:04.488Z,22.75
2023-02-16T16:42:33.624Z,22.40
2023-02-16T16:45:07.315Z,22.75
2023-02-16T16:47:38.962Z,23.13
2023-02-16T16:50:30.828Z,25.83
2023-02-16T16:52:59.487Z,22.95
2023-02-16T16:55:33.953Z,23.35
2023-02-16T16:58:05.185Z,25.38
2023-02-16T17:00:36.146Z,23.10
2023-02-16T17:03:05.259Z,22.27
2023-02-16T17:05:35.934Z,22.75
2023-02-16T17:08:04.352Z,24.67
2023-02-16T17:10:32.666Z,23.42
2023-02-16T17:13:01.151Z,24.05
2023-02-16T17:15:41.678Z,23.48
2023-02-16T17:18:14.610Z,24.80
2023-02-16T17:20:44.240Z,23.75
2023-02-16T17:23:13.145Z,24.27
2023-02-16T17:25:41.590Z,23.85
2023-02-16T17:28:11.200Z,22.52
2023-02-16T17:30:39.904Z,26.48
2023-02-16T17:33:08.264Z,24.23
2023-02-16T17:35:38.841Z,23.30
2023-02-16T17:38:10.188Z,26.02
2023-02-16T17:40:39.455Z,26.73
2023-02-16T17:43:12.628Z,26.90
2023-02-16T17:45:40.866Z,24.55
2023-02-16T17:48:12.321Z,24.60
2023-02-16T17:50:40.412Z,26.13
2023-02-16T17:53:13.715Z,24.27
2023-02-16T17:55:41.937Z,23.90
2023-02-16T17:58:11.943Z,25.67
2023-02-16T18:00:41.131Z,24.73
2023-02-16T18:03:09.861Z,25.23
2023-02-16T18:05:38.211Z,23.38
2023-02-16T18:08:06.934Z,27.65
2023-02-16T18:10:39.808Z,24.75
2023-02-16T18:13:09.729Z,26.80
2023-02-16T18:15:37.743Z,27.95
2023-02-16T18:18:06.122Z,26.17
2023-02-16T18:20:34.434Z,26.27
2023-02-16T18:23:02.932Z,26.52
2023-02-16T18:25:31.010Z,24.48
2023-02-16T18:28:00.522Z,28.75
2023-02-16T18:30:29.168Z,26.10
2023-02-16T18:32:57.626Z,31.40
2023-02-16T18:35:25.769Z,28.83
2023-02-16T18:37:53.738Z,29.08
2023-02-16T18:40:22.714Z,28.08
2023-02-16T18:42:51.191Z,26.08
2023-02-16T18:45:20.551Z,26.25
2023-02-16T18:47:56.674Z,26.77
2023-02-16T18:50:25.070Z,24.75
2023-02-16T18:52:53.311Z,30.25
2023-02-16T18:55:21.589Z,26.73
2023-02-16T18:57:49.997Z,28.45
2023-02-16T19:00:20.256Z,28.83
2023-02-16T19:02:50.577Z,23.88
2023-02-16T19:05:18.641Z,26.52
2023-02-16T19:07:47.149Z,26.70
2023-02-16T19:10:15.834Z,25.20
2023-02-16T19:12:44.094Z,27.80
2023-02-16T19:15:12.544Z,29.13
2023-02-16T19:17:40.502Z,26.20
2023-02-16T19:20:14.475Z,26.85
2023-02-16T19:22:42.897Z,29.83
2023-02-16T19:25:11.195Z,28.83
2023-02-16T19:27:39.209Z,28.33
2023-02-16T19:30:08.823Z,26.80
2023-02-16T19:32:38.556Z,25.27
2023-02-16T19:35:07.461Z,24.98
2023-02-16T19:37:37.041Z,25.60
2023-02-16T19:40:06.831Z,28.05
2023-02-16T19:42:35.309Z,24.60
2023-02-16T19:45:03.617Z,25.63
2023-02-16T19:47:32.075Z,26.15
2023-02-16T19:50:00.173Z,28.83
2023-02-16T19:52:28.281Z,23.92
2023-02-16T19:54:57.879Z,28.65
2023-02-16T19:57:25.927Z,27.73
2023-02-16T19:59:54.665Z,27.65
2023-02-16T20:02:22.838Z,27.77
2023-02-16T20:04:51.138Z,27.55
2023-02-16T20:07:19.273Z,26.90
2023-02-16T20:09:47.374Z,31.77
2023-02-16T20:12:16.817Z,28.67
2023-02-16T20:14:44.909Z,28.10
2023-02-16T20:17:13.519Z,28.67
2023-02-16T20:19:41.546Z,31.73
2023-02-16T20:22:09.617Z,28.42
2023-02-16T20:24:38.152Z,32.97
2023-02-16T20:27:06.513Z,28.90
2023-02-16T20:29:35.922Z,30.65
2023-02-16T20:32:05.781Z,32.50
2023-02-16T20:34:34.103Z,29.77
2023-02-16T20:37:02.789Z,29.33
2023-02-16T20:39:30.916Z,29.38
2023-02-16T20:41:59.412Z,30.88
2023-02-16T20:44:27.758Z,28.65
2023-02-16T20:46:59.734Z,28.58
2023-02-16T20:49:28.158Z,29.02
2023-02-16T20:51:56.467Z,28.08
2023-02-16T20:54:24.378Z,30.95
2023-02-16T20:56:52.619Z,31.33
2023-02-16T20:59:21.056Z,27.73
2023-02-16T21:01:52.326Z,29.08
2023-02-16T21:04:22.274Z,28.30
2023-02-16T21:06:50.815Z,27.10
2023-02-16T21:09:19.450Z,28.33
2023-02-16T21:11:47.745Z,28.67
2023-02-16T21:14:16.244Z,28.33
2023-02-16T21:16:44.252Z,31.60
2023-02-16T21:19:22.657Z,28.40
2023-02-16T21:21:52.840Z,29.00
2023-02-16T21:24:21.144Z,27.65
2023-02-16T21:26:49.351Z,28.65
2023-02-16T21:29:17.520Z,24.10
2023-02-16T21:31:45.840Z,27.05
2023-02-16T21:34:14.072Z,27.35
2023-02-16T21:36:42.253Z,26.73
2023-02-16T21:39:11.603Z,26.65
2023-02-16T21:41:38.643Z,25.55
2023-02-16T21:44:08.678Z,24.35
2023-02-16T21:46:39.220Z,27.30
2023-02-16T21:49:08.445Z,27.48
2023-02-16T21:51:40.870Z,25.27
2023-02-16T21:54:10.007Z,24.65
2023-02-16T21:56:40.791Z,24.70
2023-02-16T21:59:12.613Z,26.48
2023-02-16T22:01:42.753Z,26.42
2023-02-16T22:04:12.792Z,26.25
2023-02-16T22:06:42.952Z,26.05
2023-02-16T22:09:14.238Z,25.80
2023-02-16T22:11:43.591Z,24.00
2023-02-16T22:14:11.723Z,24.15
2023-02-16T22:16:40.698Z,23.95
2023-02-16T22:19:11.809Z,23.60
2023-02-16T22:21:42.328Z,26.23
2023-02-16T22:24:13.392Z,25.50
2023-02-16T22:26:41.694Z,26.50
2023-02-16T22:29:11.781Z,28.33
2023-02-16T22:31:44.177Z,26.25
2023-02-16T22:34:15.021Z,26.95
2023-02-16T22:36:43.536Z,29.55
2023-02-16T22:39:14.092Z,25.60
2023-02-16T22:41:42.283Z,25.70
2023-02-16T22:44:12.535Z,26.90
2023-02-16T22:46:40.934Z,25.63
2023-02-16T22:49:11.178Z,25.70
2023-02-16T22:51:39.392Z,29.20
2023-02-16T22:54:08.237Z,24.33
2023-02-16T22:56:36.322Z,25.13
2023-02-16T22:59:04.630Z,27.52
2023-02-16T23:01:34.839Z,25.13
2023-02-16T23:04:03.344Z,26.98
2023-02-16T23:06:33.352Z,27.13
2023-02-16T23:09:03.401Z,23.48
2023-02-16T23:11:31.867Z,26.30
2023-02-16T23:13:59.828Z,25.75
2023-02-16T23:16:28.850Z,25.60
2023-02-16T23:19:00.337Z,26.40
2023-02-16T23:21:29.911Z,27.48
2023-02-16T23:23:58.973Z,26.42
2023-02-16T23:26:29.452Z,25.77
2023-02-16T23:29:00.244Z,24.77
2023-02-16T23:31:31.687Z,25.92
2023-02-16T23:34:02.642Z,27.38
2023-02-16T23:36:31.031Z,27.00
2023-02-16T23:39:01.242Z,24.63
2023-02-16T23:41:29.912Z,23.70
2023-02-16T23:43:59.979Z,25.77
2023-02-16T23:46:29.375Z,24.08
2023-02-16T23:48:57.550Z,24.88
2023-02-16T23:51:27.302Z,27.67
2023-02-16T23:53:55.791Z,28.30
2023-02-16T23:56:25.276Z,23.95
2023-02-16T23:58:53.916Z,22.50
